Time;durP1;ratioP1;P1;durP2;ratioP2;P2;SDS_P1;SDS_P2;PMS_P1;PMS_P2;Temp;Humidity;BMP_temperature;BMP_pressure;BME280_temperature;BME280_humidity;BME280_pressure;Samples;Min_cycle;Max_cycle;Signal;HPM_P1;HPM_P2
2021/04/21 00:01:07;;;;;;;2.88;2.33;;;10.10;96.70;;;;;;4933800;29;20055;-78
2021/04/21 00:03:36;;;;;;;2.97;2.35;;;10.10;96.70;;;;;;4919547;29;20517;-77
2021/04/21 00:06:07;;;;;;;2.40;2.00;;;10.10;96.70;;;;;;4911291;29;20055;-77
2021/04/21 00:08:36;;;;;;;3.13;2.45;;;10.00;96.70;;;;;;4918261;29;20050;-77
2021/04/21 00:11:05;;;;;;;1.98;1.70;;;10.00;96.70;;;;;;4941169;29;20043;-77
2021/04/21 00:13:34;;;;;;;3.17;2.28;;;9.90;96.70;;;;;;4942789;28;20035;-77
2021/04/21 00:16:02;;;;;;;1.98;1.70;;;9.80;96.70;;;;;;4934970;29;20055;-77
2021/04/21 00:18:33;;;;;;;2.25;2.05;;;9.70;96.70;;;;;;4920223;29;20043;-77
2021/04/21 00:21:03;;;;;;;3.10;2.20;;;9.60;96.70;;;;;;4935497;29;20561;-76
2021/04/21 00:23:34;;;;;;;2.47;2.03;;;9.60;96.70;;;;;;4925749;29;20213;-77
2021/04/21 00:26:06;;;;;;;3.22;2.38;;;9.60;96.70;;;;;;4926944;29;20048;-77
2021/04/21 00:28:37;;;;;;;3.42;2.30;;;9.60;96.70;;;;;;4942109;29;20050;-77
2021/04/21 00:31:07;;;;;;;3.08;2.30;;;9.60;96.70;;;;;;4915924;29;20193;-77
2021/04/21 00:33:37;;;;;;;3.45;2.90;;;9.60;96.70;;;;;;4900950;29;20047;-77
2021/04/21 00:36:10;;;;;;;4.97;3.20;;;9.70;96.70;;;;;;4902458;29;20088;-77
2021/04/21 00:38:39;;;;;;;2.97;2.47;;;9.70;96.70;;;;;;4938680;28;20059;-77
2021/04/21 00:41:19;;;;;;;4.35;2.42;;;9.70;96.70;;;;;;4936621;29;20043;-77
2021/04/21 00:43:53;;;;;;;3.00;2.40;;;9.60;96.70;;;;;;4911397;29;20047;-77
2021/04/21 00:46:24;;;;;;;3.40;2.83;;;9.60;96.70;;;;;;4918523;29;20166;-77
2021/04/21 00:49:09;;;;;;;3.58;2.78;;;9.70;96.70;;;;;;4910470;29;20059;-77
2021/04/21 00:51:47;;;;;;;2.75;2.30;;;9.70;96.70;;;;;;4896486;29;20451;-77
2021/04/21 00:54:19;;;;;;;3.65;2.60;;;9.70;96.70;;;;;;4936771;28;20683;-77
2021/04/21 00:56:59;;;;;;;3.08;2.60;;;9.70;96.70;;;;;;4914673;29;20055;-78
2021/04/21 00:59:38;;;;;;;3.92;2.00;;;9.70;96.70;;;;;;4914501;29;20051;-77
2021/04/21 01:02:09;;;;;;;3.03;2.22;;;9.60;96.70;;;;;;4905814;29;20063;-77
2021/04/21 01:04:40;;;;;;;3.70;2.20;;;9.50;96.70;;;;;;4911154;29;20051;-77
2021/04/21 01:07:11;;;;;;;3.45;2.35;;;9.50;96.70;;;;;;4935957;29;20454;-77
2021/04/21 01:09:42;;;;;;;3.38;2.00;;;9.50;96.70;;;;;;4913653;29;20788;-77
2021/04/21 01:12:15;;;;;;;3.15;1.90;;;9.50;96.70;;;;;;4890894;29;20079;-77
2021/04/21 01:14:47;;;;;;;2.47;1.70;;;9.50;96.70;;;;;;4930399;29;20070;-77
2021/04/21 01:17:17;;;;;;;2.42;2.20;;;9.40;96.70;;;;;;4908610;29;20050;-77
2021/04/21 01:20:12;;;;;;;3.08;2.28;;;9.40;96.70;;;;;;4913390;29;20074;-77
2021/04/21 01:23:19;;;;;;;4.78;2.63;;;9.40;96.70;;;;;;4908325;29;20142;-77
2021/04/21 01:26:01;;;;;;;3.30;1.85;;;9.30;96.70;;;;;;4924509;29;20060;-77
2021/04/21 01:28:32;;;;;;;2.75;2.40;;;9.30;96.70;;;;;;4912150;29;20095;-77
2021/04/21 01:31:01;;;;;;;2.78;1.90;;;9.30;96.70;;;;;;4915485;29;20103;-77
2021/04/21 01:33:30;;;;;;;3.10;1.85;;;9.30;96.70;;;;;;4904351;29;20079;-77
2021/04/21 01:36:03;;;;;;;4.65;2.08;;;9.20;96.70;;;;;;4924954;29;20043;-76
2021/04/21 01:38:32;;;;;;;2.92;1.70;;;9.20;96.70;;;;;;4910043;29;20384;-76
2021/04/21 01:41:05;;;;;;;2.20;1.90;;;9.20;96.70;;;;;;4928743;29;20032;-76
2021/04/21 01:43:36;;;;;;;2.42;2.15;;;9.20;96.70;;;;;;4931344;29;20497;-75
2021/04/21 01:46:07;;;;;;;2.45;2.10;;;9.20;96.70;;;;;;4910242;29;20099;-76
2021/04/21 01:48:36;;;;;;;2.20;1.90;;;9.20;96.70;;;;;;4932425;29;20075;-76
2021/04/21 01:51:13;;;;;;;2.92;2.15;;;9.30;96.70;;;;;;4930321;29;20444;-75
2021/04/21 01:53:46;;;;;;;4.80;2.28;;;9.20;96.70;;;;;;4934344;29;20378;-76
2021/04/21 01:56:20;;;;;;;2.80;2.13;;;9.20;96.70;;;;;;4915148;29;20044;-75
2021/04/21 01:59:04;;;;;;;2.60;2.22;;;9.20;96.70;;;;;;4923311;29;20040;-75
2021/04/21 02:01:40;;;;;;;2.58;2.00;;;9.10;96.70;;;;;;4902558;29;20099;-76
2021/04/21 02:04:22;;;;;;;3.15;1.98;;;9.10;96.70;;;;;;4935160;29;20044;-75
2021/04/21 02:07:03;;;;;;;4.32;2.30;;;9.10;96.70;;;;;;4910632;29;20047;-75
2021/04/21 02:10:18;;;;;;;3.95;2.17;;;9.10;96.70;;;;;;4916293;29;20059;-76
2021/04/21 02:13:00;;;;;;;3.40;2.15;;;9.10;96.70;;;;;;4930461;29;20199;-76
2021/04/21 02:15:41;;;;;;;2.92;1.90;;;9.00;96.70;;;;;;4911728;29;20071;-78
2021/04/21 02:18:18;;;;;;;1.85;1.65;;;9.10;96.70;;;;;;4926143;29;20160;-78
2021/04/21 02:20:57;;;;;;;2.90;2.22;;;9.10;96.70;;;;;;4919902;29;20056;-78
2021/04/21 02:23:32;;;;;;;3.88;2.15;;;9.10;96.70;;;;;;4925887;29;20522;-78
2021/04/21 02:26:15;;;;;;;2.78;2.00;;;9.10;96.70;;;;;;4928316;29;20052;-78
2021/04/21 02:28:52;;;;;;;2.65;2.00;;;9.00;96.70;;;;;;4910772;29;20051;-78
2021/04/21 02:31:37;;;;;;;4.85;2.15;;;9.00;96.70;;;;;;4890701;29;20462;-77
2021/04/21 02:34:13;;;;;;;2.35;1.95;;;8.90;96.70;;;;;;4922678;29;20058;-77
2021/04/21 02:36:45;;;;;;;2.50;2.25;;;8.90;96.70;;;;;;4920022;29;20429;-78
2021/04/21 02:39:18;;;;;;;5.13;1.88;;;8.90;96.70;;;;;;4907420;29;20494;-78
2021/04/21 02:41:58;;;;;;;2.08;1.65;;;8.90;96.70;;;;;;4933851;29;20103;-77
2021/04/21 02:44:36;;;;;;;3.53;2.20;;;9.00;96.70;;;;;;4907165;29;20275;-77
2021/04/21 02:47:11;;;;;;;3.83;2.63;;;9.00;96.70;;;;;;4926902;29;20506;-78
2021/04/21 02:49:47;;;;;;;2.95;2.53;;;9.00;96.70;;;;;;4929721;29;20126;-77
2021/04/21 02:52:34;;;;;;;3.35;2.45;;;8.90;96.70;;;;;;4937080;29;20074;-78
2021/04/21 02:55:14;;;;;;;4.93;2.50;;;8.80;96.70;;;;;;4928003;29;20051;-78
2021/04/21 02:57:51;;;;;;;2.15;1.95;;;8.80;96.70;;;;;;4935847;29;20486;-78
2021/04/21 03:00:26;;;;;;;3.10;2.10;;;8.80;96.70;;;;;;4911299;29;20578;-78
2021/04/21 03:03:06;;;;;;;2.28;2.00;;;8.70;96.70;;;;;;4926319;29;20044;-78
2021/04/21 03:05:36;;;;;;;4.28;2.45;;;8.60;96.70;;;;;;4933460;29;20057;-77
2021/04/21 03:08:08;;;;;;;2.88;2.22;;;8.50;96.70;;;;;;4926034;29;20106;-77
2021/04/21 03:10:43;;;;;;;3.15;1.80;;;8.50;96.70;;;;;;4931646;29;20526;-78
2021/04/21 03:13:15;;;;;;;2.72;2.50;;;8.60;96.70;;;;;;4927845;29;20054;-78
2021/04/21 03:15:47;;;;;;;3.05;2.42;;;8.50;96.70;;;;;;4939440;29;20039;-77
2021/04/21 03:18:19;;;;;;;5.55;2.10;;;8.50;96.70;;;;;;4910402;29;20489;-78
2021/04/21 03:20:53;;;;;;;2.92;2.20;;;8.50;96.70;;;;;;4929562;29;20100;-78
2021/04/21 03:23:22;;;;;;;2.65;2.20;;;8.50;96.70;;;;;;4913803;29;20043;-78
2021/04/21 03:25:52;;;;;;;3.58;2.53;;;8.50;96.70;;;;;;4926298;29;20054;-77
2021/04/21 03:28:23;;;;;;;3.45;2.33;;;8.50;96.70;;;;;;4927270;29;20352;-77
2021/04/21 03:30:57;;;;;;;4.65;2.72;;;8.40;96.70;;;;;;4926327;29;20043;-75
2021/04/21 03:33:33;;;;;;;3.75;2.60;;;8.40;96.70;;;;;;4935740;29;20055;-75
2021/04/21 03:36:04;;;;;;;3.05;2.55;;;8.50;96.70;;;;;;4927790;29;20066;-75
2021/04/21 03:38:33;;;;;;;3.97;2.47;;;8.50;96.70;;;;;;4930523;29;20047;-76
2021/04/21 03:41:02;;;;;;;4.10;2.70;;;8.50;96.70;;;;;;4926133;29;20043;-75
2021/04/21 03:43:32;;;;;;;3.13;2.78;;;8.50;96.70;;;;;;4933184;29;20050;-76
2021/04/21 03:46:01;;;;;;;3.17;2.58;;;8.40;96.70;;;;;;4928403;29;20072;-76
2021/04/21 03:48:32;;;;;;;3.13;2.70;;;8.40;96.70;;;;;;4932887;29;20074;-75
2021/04/21 03:51:01;;;;;;;3.53;3.17;;;8.40;96.70;;;;;;4925131;29;20407;-74
2021/04/21 03:53:32;;;;;;;4.13;2.72;;;8.40;96.70;;;;;;4926348;29;20055;-75
2021/04/21 03:56:01;;;;;;;2.88;2.47;;;8.40;96.70;;;;;;4922060;29;20035;-76
2021/04/21 03:58:31;;;;;;;4.45;2.80;;;8.50;96.70;;;;;;4927880;29;20044;-76
2021/04/21 04:01:05;;;;;;;3.00;2.47;;;8.40;96.70;;;;;;4939470;29;20063;-76
2021/04/21 04:03:36;;;;;;;3.88;2.88;;;8.40;96.70;;;;;;4911927;29;20098;-76
2021/04/21 04:06:09;;;;;;;3.42;2.75;;;8.40;96.70;;;;;;4916914;29;20484;-75
2021/04/21 04:08:42;;;;;;;4.85;3.05;;;8.40;96.70;;;;;;4931291;29;20428;-76
2021/04/21 04:11:14;;;;;;;2.80;2.42;;;8.30;96.70;;;;;;4933584;29;20047;-75
2021/04/21 04:13:45;;;;;;;3.50;2.95;;;8.30;96.70;;;;;;4923738;29;20051;-76
2021/04/21 04:16:14;;;;;;;3.58;2.50;;;8.20;96.70;;;;;;4909569;29;20495;-76
2021/04/21 04:18:44;;;;;;;3.38;2.60;;;8.20;96.70;;;;;;4911453;29;20041;-76
2021/04/21 04:21:14;;;;;;;5.88;2.60;;;8.30;96.70;;;;;;4928082;29;20040;-75
2021/04/21 04:23:44;;;;;;;4.95;2.75;;;8.30;96.70;;;;;;4908588;29;20073;-75
2021/04/21 04:26:14;;;;;;;2.92;2.35;;;8.10;96.70;;;;;;4936056;29;20134;-76
2021/04/21 04:28:43;;;;;;;3.13;2.35;;;8.00;96.70;;;;;;4930888;29;20042;-76
2021/04/21 04:31:13;;;;;;;3.47;2.10;;;8.00;96.70;;;;;;4933537;29;20051;-76
2021/04/21 04:33:47;;;;;;;3.00;2.15;;;8.10;96.70;;;;;;4930263;29;20054;-75
2021/04/21 04:36:15;;;;;;;3.70;2.55;;;8.10;96.70;;;;;;4909680;29;20114;-75
2021/04/21 04:38:44;;;;;;;4.00;2.40;;;8.10;96.70;;;;;;4931488;29;20053;-76
2021/04/21 04:41:13;;;;;;;3.00;2.40;;;8.10;96.70;;;;;;4933674;29;20514;-75
2021/04/21 04:43:42;;;;;;;3.72;2.47;;;8.10;96.70;;;;;;4934114;28;20052;-76
2021/04/21 04:46:14;;;;;;;2.65;2.33;;;8.10;96.70;;;;;;4928133;29;20462;-75
2021/04/21 04:48:49;;;;;;;5.05;2.53;;;8.20;96.70;;;;;;4934904;28;20460;-76
2021/04/21 04:51:20;;;;;;;6.10;2.30;;;8.20;96.70;;;;;;4931360;29;20097;-76
2021/04/21 04:53:50;;;;;;;2.63;2.40;;;8.10;96.70;;;;;;4916472;29;20043;-76
2021/04/21 04:56:18;;;;;;;3.92;2.60;;;8.20;96.70;;;;;;4926695;29;20052;-76
2021/04/21 04:58:47;;;;;;;2.85;2.13;;;8.20;96.70;;;;;;4931761;29;20076;-76
2021/04/21 05:01:16;;;;;;;3.75;2.28;;;8.20;96.70;;;;;;4927417;29;20573;-76
2021/04/21 05:03:51;;;;;;;2.95;2.60;;;8.20;96.70;;;;;;4923677;29;20309;-76
2021/04/21 05:06:28;;;;;;;3.35;2.20;;;8.20;96.70;;;;;;4924675;29;20059;-75
2021/04/21 05:09:01;;;;;;;2.60;2.40;;;8.20;96.70;;;;;;4907219;29;20498;-79
2021/04/21 05:11:31;;;;;;;5.82;2.80;;;8.30;96.70;;;;;;4927118;29;20134;-76
2021/04/21 05:14:05;;;;;;;6.45;3.05;;;8.40;96.70;;;;;;4890591;29;20048;-76
2021/04/21 05:17:12;;;;;;;3.95;2.90;;;8.60;96.70;;;;;;4924245;29;20051;-76
2021/04/21 05:20:11;;;;;;;4.50;3.38;;;8.80;96.70;;;;;;4889882;29;20056;-76
2021/04/21 05:23:14;;;;;;;5.70;3.35;;;8.90;96.70;;;;;;4915180;29;20138;-77
2021/04/21 05:26:19;;;;;;;5.05;3.33;;;9.00;96.70;;;;;;4924288;29;20528;-76
2021/04/21 05:29:25;;;;;;;6.40;3.40;;;9.00;96.70;;;;;;4924830;29;20054;-76
2021/04/21 05:32:26;;;;;;;4.20;3.22;;;9.10;96.70;;;;;;4925256;29;20569;-76
2021/04/21 05:35:55;;;;;;;5.65;3.67;;;9.20;96.70;;;;;;4923090;29;20417;-77
2021/04/21 05:39:19;;;;;;;5.53;3.78;;;9.30;96.70;;;;;;4924730;29;20156;-76
2021/04/21 05:42:45;;;;;;;8.10;4.72;;;9.20;96.70;;;;;;4847014;29;20145;-76
2021/04/21 05:45:48;;;;;;;5.30;3.78;;;9.30;96.70;;;;;;4925790;29;20060;-76
2021/04/21 05:48:49;;;;;;;5.10;3.65;;;9.40;96.70;;;;;;4901999;29;20501;-76
2021/04/21 05:52:07;;;;;;;4.68;3.90;;;9.40;96.70;;;;;;4924237;29;20047;-76
2021/04/21 05:55:11;;;;;;;5.47;3.55;;;9.40;96.70;;;;;;4923119;29;20044;-76
2021/04/21 05:58:25;;;;;;;5.40;3.60;;;9.50;96.70;;;;;;4923574;29;20150;-76
2021/04/21 06:01:25;;;;;;;4.93;4.07;;;9.40;96.70;;;;;;4924597;29;20058;-76
2021/04/21 06:03:55;;;;;;;5.43;3.92;;;9.40;96.70;;;;;;4903583;29;20087;-76
2021/04/21 06:06:23;;;;;;;5.80;4.15;;;9.50;96.70;;;;;;4923676;29;20115;-75
2021/04/21 06:08:52;;;;;;;6.80;3.72;;;9.50;96.70;;;;;;4924742;29;20209;-76
2021/04/21 06:11:23;;;;;;;4.90;4.22;;;9.60;96.70;;;;;;4924247;29;20046;-76
2021/04/21 06:13:53;;;;;;;7.03;3.95;;;9.70;96.70;;;;;;4922046;29;20371;-77
2021/04/21 06:16:22;;;;;;;6.40;4.40;;;9.80;96.70;;;;;;4906551;29;20286;-79
2021/04/21 06:18:54;;;;;;;6.35;4.85;;;9.80;96.70;;;;;;4921399;29;20044;-77
2021/04/21 06:21:23;;;;;;;6.00;4.45;;;9.90;96.70;;;;;;4894792;29;20172;-77
2021/04/21 06:23:54;;;;;;;6.20;4.88;;;9.90;96.70;;;;;;4910771;29;20047;-77
2021/04/21 06:26:24;;;;;;;5.65;4.40;;;9.80;96.70;;;;;;4909951;29;20039;-77
2021/04/21 06:29:03;;;;;;;5.60;4.45;;;9.90;96.70;;;;;;4928523;29;20050;-78
2021/04/21 06:31:37;;;;;;;6.35;4.47;;;10.00;96.70;;;;;;4893685;29;20064;-78
2021/04/21 06:34:07;;;;;;;5.93;5.22;;;10.10;96.70;;;;;;4910946;29;20040;-76
2021/04/21 06:36:39;;;;;;;5.07;4.57;;;10.10;96.70;;;;;;4893576;29;20054;-77
2021/04/21 06:39:09;;;;;;;6.43;4.75;;;10.20;96.70;;;;;;4910358;29;20063;-77
2021/04/21 06:41:38;;;;;;;6.15;5.05;;;10.20;96.70;;;;;;4926625;29;20059;-78
2021/04/21 06:44:07;;;;;;;6.82;4.80;;;10.30;96.70;;;;;;4910542;29;20131;-78
2021/04/21 06:46:35;;;;;;;5.25;4.40;;;10.40;96.70;;;;;;4907750;29;20393;-78
2021/04/21 06:49:04;;;;;;;6.20;4.72;;;10.50;96.70;;;;;;4894797;29;20052;-76
2021/04/21 06:51:35;;;;;;;9.68;4.50;;;10.50;96.70;;;;;;4892713;29;20048;-77
2021/04/21 06:54:07;;;;;;;7.00;4.72;;;10.60;96.70;;;;;;4911219;29;20158;-78
2021/04/21 06:56:36;;;;;;;6.00;4.95;;;10.60;96.70;;;;;;4920315;29;20056;-77
2021/04/21 06:59:05;;;;;;;7.47;5.65;;;10.60;96.70;;;;;;4894179;29;20146;-77
2021/04/21 07:01:33;;;;;;;6.78;5.05;;;10.70;96.70;;;;;;4915506;29;20399;-78
2021/04/21 07:04:15;;;;;;;6.57;5.00;;;10.80;96.70;;;;;;4909921;29;20039;-78
2021/04/21 07:06:48;;;;;;;5.87;4.97;;;10.90;96.70;;;;;;4925915;29;20056;-77
2021/04/21 07:09:19;;;;;;;6.30;5.03;;;10.90;96.70;;;;;;4916414;29;20092;-77
2021/04/21 07:11:56;;;;;;;6.22;5.07;;;10.90;96.70;;;;;;4928050;29;20062;-79
2021/04/21 07:14:26;;;;;;;6.15;5.20;;;11.00;96.70;;;;;;4933931;28;20047;-79
2021/04/21 07:16:56;;;;;;;9.00;5.78;;;11.10;96.70;;;;;;4939462;29;20145;-80
2021/04/21 07:19:26;;;;;;;8.18;6.03;;;11.10;96.70;;;;;;4907939;29;20043;-80
2021/04/21 07:21:55;;;;;;;6.43;5.45;;;11.20;96.70;;;;;;4939113;29;20043;-80
2021/04/21 07:24:31;;;;;;;7.07;5.97;;;11.30;96.70;;;;;;4895134;29;20052;-80
2021/04/21 07:27:06;;;;;;;10.13;6.73;;;11.30;96.70;;;;;;4929070;29;20332;-79
2021/04/21 07:29:35;;;;;;;10.98;6.35;;;11.30;96.70;;;;;;4918886;29;20709;-80
2021/04/21 07:32:21;;;;;;;8.07;6.68;;;11.30;96.70;;;;;;4933446;29;20051;-80
2021/04/21 07:35:00;;;;;;;9.30;6.97;;;11.40;96.70;;;;;;4913021;29;20565;-80
2021/04/21 07:37:36;;;;;;;8.55;7.07;;;11.50;96.70;;;;;;4921773;29;20051;-80
2021/04/21 07:40:25;;;;;;;8.75;7.70;;;11.40;96.70;;;;;;4928347;28;20138;-79
2021/04/21 07:43:04;;;;;;;10.15;7.55;;;11.50;96.70;;;;;;4923163;29;20103;-79
2021/04/21 07:45:47;;;;;;;9.82;7.97;;;11.60;96.70;;;;;;4928061;29;20142;-80
2021/04/21 07:48:41;;;;;;;12.02;8.32;;;11.70;96.70;;;;;;4919445;29;20046;-80
2021/04/21 07:51:41;;;;;;;10.43;7.43;;;11.70;96.70;;;;;;4928813;29;20043;-78
2021/04/21 07:54:21;;;;;;;9.57;7.53;;;11.80;96.70;;;;;;4909482;29;20512;-78
2021/04/21 07:57:09;;;;;;;8.35;6.63;;;11.90;96.70;;;;;;4930314;29;20058;-78
2021/04/21 07:59:41;;;;;;;8.65;6.95;;;11.90;96.70;;;;;;4891486;29;20422;-77
2021/04/21 08:02:12;;;;;;;8.82;7.57;;;11.90;96.70;;;;;;4930064;29;20059;-77
2021/04/21 08:04:55;;;;;;;8.15;6.80;;;12.00;96.70;;;;;;4928998;29;20050;-77
2021/04/21 08:07:41;;;;;;;9.45;6.63;;;12.10;96.70;;;;;;4926434;29;20505;-77
2021/04/21 08:10:24;;;;;;;8.57;6.63;;;12.20;96.70;;;;;;4928907;28;20051;-79
2021/04/21 08:12:55;;;;;;;9.13;5.88;;;12.40;96.70;;;;;;4920402;29;20095;-78
2021/04/21 08:15:28;;;;;;;7.55;6.30;;;12.50;96.70;;;;;;4926450;29;20634;-78
2021/04/21 08:17:59;;;;;;;7.53;5.57;;;12.60;96.70;;;;;;4915965;28;20052;-78
2021/04/21 08:20:31;;;;;;;9.23;5.53;;;12.70;96.70;;;;;;4948773;28;20035;-78
2021/04/21 08:23:00;;;;;;;5.75;5.15;;;12.80;96.70;;;;;;4948250;28;20047;-77
2021/04/21 08:25:29;;;;;;;8.00;5.97;;;13.00;96.70;;;;;;4956174;28;20113;-77
2021/04/21 08:27:59;;;;;;;5.93;5.32;;;13.10;96.70;;;;;;4945983;28;20457;-78
2021/04/21 08:30:29;;;;;;;6.88;6.18;;;13.00;96.70;;;;;;4911238;28;20618;-77
2021/04/21 08:32:57;;;;;;;7.13;5.65;;;13.10;96.70;;;;;;4931133;28;20145;-77
2021/04/21 08:35:26;;;;;;;5.93;5.32;;;13.30;96.70;;;;;;4950282;28;20175;-77
2021/04/21 08:37:54;;;;;;;7.43;5.78;;;13.40;96.70;;;;;;4934189;28;20435;-77
2021/04/21 08:40:26;;;;;;;8.32;6.45;;;13.40;96.70;;;;;;4947588;28;20154;-78
2021/04/21 08:43:02;;;;;;;6.22;5.15;;;13.50;96.70;;;;;;4947024;28;20134;-78
2021/04/21 08:45:31;;;;;;;6.43;5.82;;;13.50;96.70;;;;;;4946903;28;20210;-78
2021/04/21 08:48:01;;;;;;;8.65;5.45;;;13.60;96.70;;;;;;4945761;28;20252;-78
2021/04/21 08:50:31;;;;;;;6.80;5.28;;;13.80;96.70;;;;;;4928325;28;20081;-80
2021/04/21 08:53:05;;;;;;;8.55;5.53;;;13.90;96.70;;;;;;4929380;29;20039;-81
2021/04/21 08:55:34;;;;;;;7.88;5.53;;;14.00;96.70;;;;;;4939614;28;20051;-80
2021/04/21 08:58:03;;;;;;;6.13;5.53;;;14.30;96.70;;;;;;4930537;29;20039;-80
2021/04/21 09:00:32;;;;;;;7.18;4.70;;;14.50;96.70;;;;;;4928584;29;20170;-79
2021/04/21 09:03:01;;;;;;;6.50;5.88;;;14.50;96.70;;;;;;4944691;28;20035;-78
2021/04/21 09:05:30;;;;;;;5.57;4.90;;;14.60;96.70;;;;;;4939378;29;20051;-77
2021/04/21 09:07:59;;;;;;;6.18;5.18;;;14.50;96.70;;;;;;4943683;28;20122;-77
2021/04/21 09:10:27;;;;;;;5.25;4.75;;;14.60;96.70;;;;;;4929550;29;20484;-77
2021/04/21 09:12:55;;;;;;;7.28;4.70;;;14.70;96.70;;;;;;4928399;28;20118;-77
2021/04/21 09:15:23;;;;;;;7.25;4.68;;;14.70;96.70;;;;;;4944244;28;20039;-77
2021/04/21 09:17:56;;;;;;;5.28;4.38;;;14.80;96.70;;;;;;4933025;28;20497;-77
2021/04/21 09:20:26;;;;;;;6.90;5.18;;;14.80;96.70;;;;;;4943387;28;20086;-77
2021/04/21 09:23:06;;;;;;;6.97;4.35;;;14.70;96.70;;;;;;4943531;28;20078;-77
2021/04/21 09:25:36;;;;;;;4.50;4.10;;;14.80;96.70;;;;;;4939220;28;20058;-77
2021/04/21 09:28:05;;;;;;;4.68;4.05;;;14.90;96.70;;;;;;4943812;28;20054;-77
2021/04/21 09:30:37;;;;;;;5.28;4.72;;;15.10;96.70;;;;;;4919791;28;20061;-76
2021/04/21 09:33:07;;;;;;;6.10;4.35;;;15.30;96.70;;;;;;4926512;28;20059;-82
2021/04/21 09:35:39;;;;;;;4.63;3.90;;;15.30;96.70;;;;;;4927883;29;20047;-79
2021/04/21 09:38:09;;;;;;;4.30;3.83;;;15.50;96.70;;;;;;4925271;28;20062;-78
2021/04/21 09:40:40;;;;;;;4.75;4.35;;;15.70;96.70;;;;;;4926949;29;20546;-77
2021/04/21 09:43:11;;;;;;;5.28;4.57;;;15.80;95.50;;;;;;4942497;28;20032;-78
2021/04/21 09:45:43;;;;;;;5.78;5.18;;;15.80;93.40;;;;;;4929990;29;20051;-78
2021/04/21 09:48:14;;;;;;;4.80;4.30;;;15.80;94.20;;;;;;4921105;29;20146;-78
2021/04/21 09:50:54;;;;;;;6.05;4.38;;;15.90;94.70;;;;;;4938697;28;20043;-78
2021/04/21 09:53:34;;;;;;;5.35;4.38;;;16.00;93.80;;;;;;4942610;28;20059;-78
2021/04/21 09:56:11;;;;;;;6.28;4.55;;;16.00;93.80;;;;;;4929823;29;20502;-78
2021/04/21 09:58:43;;;;;;;4.95;4.43;;;16.00;93.00;;;;;;4937956;28;20060;-78
2021/04/21 10:01:28;;;;;;;5.70;4.32;;;16.10;93.80;;;;;;4906871;29;20067;-78
2021/04/21 10:04:09;;;;;;;4.95;4.45;;;16.30;93.50;;;;;;4922632;29;20111;-78
2021/04/21 10:06:41;;;;;;;4.50;3.92;;;16.20;93.00;;;;;;4927832;29;20103;-78
2021/04/21 10:09:24;;;;;;;6.25;4.25;;;16.20;92.70;;;;;;4912009;29;20257;-78
2021/04/21 10:12:12;;;;;;;5.50;4.55;;;16.20;92.40;;;;;;4910684;29;20130;-78
2021/04/21 10:14:41;;;;;;;4.47;4.07;;;16.20;92.90;;;;;;4894792;29;20546;-78
2021/04/21 10:17:10;;;;;;;5.40;4.00;;;16.40;93.00;;;;;;4918725;29;20071;-78
2021/04/21 10:19:41;;;;;;;5.40;4.70;;;16.60;91.70;;;;;;4927204;29;20071;-78
2021/04/21 10:22:13;;;;;;;7.47;4.80;;;16.50;91.50;;;;;;4911846;29;20502;-78
2021/04/21 10:24:41;;;;;;;5.05;4.55;;;16.60;90.90;;;;;;4927414;29;20666;-78
2021/04/21 10:27:11;;;;;;;5.28;4.50;;;16.70;90.40;;;;;;4923774;29;20059;-78
2021/04/21 10:29:39;;;;;;;6.40;4.72;;;16.70;90.10;;;;;;4928205;29;20055;-78
2021/04/21 10:32:10;;;;;;;5.85;4.47;;;16.80;90.30;;;;;;4909538;29;20581;-79
2021/04/21 10:34:40;;;;;;;6.72;4.35;;;16.90;89.90;;;;;;4910628;29;20130;-78
2021/04/21 10:37:10;;;;;;;4.88;4.20;;;16.80;88.70;;;;;;4927640;29;20142;-78
2021/04/21 10:39:39;;;;;;;5.38;4.30;;;16.80;89.40;;;;;;4926459;29;20604;-79
2021/04/21 10:42:10;;;;;;;5.03;4.13;;;16.90;89.00;;;;;;4894816;29;20044;-78
2021/04/21 10:44:44;;;;;;;4.43;3.80;;;16.90;88.40;;;;;;4910081;29;20060;-77
2021/04/21 10:47:13;;;;;;;4.43;3.97;;;17.00;88.40;;;;;;4928865;29;20057;-78
2021/04/21 10:50:03;;;;;;;5.00;3.92;;;17.20;88.80;;;;;;4930847;29;20090;-78
2021/04/21 10:52:39;;;;;;;5.22;4.15;;;17.40;88.60;;;;;;4927970;29;20051;-78
2021/04/21 10:55:38;;;;;;;4.90;3.80;;;17.60;88.00;;;;;;4908935;29;20054;-80
2021/04/21 10:58:09;;;;;;;4.38;3.90;;;17.80;86.80;;;;;;4850724;29;20302;-80
2021/04/21 11:00:46;;;;;;;4.72;4.25;;;17.90;86.40;;;;;;4913868;29;20063;-79
2021/04/21 11:03:19;;;;;;;4.38;3.45;;;18.00;86.00;;;;;;4944845;28;20691;-79
2021/04/21 11:05:57;;;;;;;4.28;3.88;;;17.90;86.10;;;;;;4920526;28;20055;-80
2021/04/21 11:08:27;;;;;;;4.03;3.63;;;18.10;85.40;;;;;;4930365;28;20461;-80
2021/04/21 11:11:00;;;;;;;4.10;3.70;;;18.00;84.90;;;;;;4940095;28;20102;-79
2021/04/21 11:13:43;;;;;;;4.70;3.47;;;17.80;85.30;;;;;;4933333;29;20048;-81
2021/04/21 11:16:33;;;;;;;4.03;3.20;;;17.80;85.00;;;;;;4947010;28;20050;-80
2021/04/21 11:19:24;;;;;;;4.60;3.05;;;17.80;85.70;;;;;;4918121;29;20138;-80
2021/04/21 11:22:29;;;;;;;3.60;2.55;;;17.90;85.30;;;;;;4924722;29;20813;-80
2021/04/21 11:25:23;;;;;;;4.20;3.05;;;18.20;82.00;;;;;;4928396;29;20109;-79
2021/04/21 11:27:53;;;;;;;2.78;2.53;;;18.20;81.30;;;;;;4927413;29;20432;-80
2021/04/21 11:30:54;;;;;;;2.95;2.22;;;18.50;82.90;;;;;;4941842;28;20506;-80
2021/04/21 11:33:55;;;;;;;2.85;2.35;;;18.30;81.30;;;;;;4940282;28;20452;-80
2021/04/21 11:36:52;;;;;;;3.08;2.80;;;18.30;81.50;;;;;;4946196;29;20073;-80
2021/04/21 11:40:01;;;;;;;2.80;2.47;;;18.10;82.20;;;;;;4942323;28;20138;-80
2021/04/21 11:42:47;;;;;;;4.65;2.40;;;18.20;82.70;;;;;;4919655;29;20074;-80
2021/04/21 11:45:22;;;;;;;2.30;2.00;;;18.50;81.80;;;;;;4942115;28;20075;-80
2021/04/21 11:47:51;;;;;;;3.58;2.17;;;18.50;80.20;;;;;;4923630;28;20054;-80
2021/04/21 11:50:24;;;;;;;4.30;2.42;;;18.30;80.70;;;;;;4929373;29;20336;-79
2021/04/21 11:53:15;;;;;;;2.47;2.22;;;18.30;80.60;;;;;;4944045;28;20043;-80
2021/04/21 11:55:53;;;;;;;2.88;1.83;;;18.20;80.90;;;;;;4939768;28;20043;-79
2021/04/21 11:58:27;;;;;;;3.63;2.53;;;18.30;80.70;;;;;;4930647;28;20047;-79
2021/04/21 12:00:56;;;;;;;3.30;2.55;;;18.40;80.80;;;;;;4947065;28;20513;-79
2021/04/21 12:03:25;;;;;;;4.18;2.28;;;18.40;80.10;;;;;;4952299;28;20043;-79
2021/04/21 12:05:56;;;;;;;3.03;2.50;;;18.60;80.50;;;;;;4931791;29;20047;-80
2021/04/21 12:08:25;;;;;;;2.85;2.42;;;18.70;79.90;;;;;;4949492;28;20760;-80
2021/04/21 12:10:54;;;;;;;2.38;2.00;;;18.80;79.50;;;;;;4929254;28;20099;-79
2021/04/21 12:13:28;;;;;;;2.47;2.28;;;18.90;79.50;;;;;;4925802;28;20068;-80
2021/04/21 12:16:07;;;;;;;2.95;2.60;;;19.10;79.90;;;;;;4957274;28;20043;-80
2021/04/21 12:18:40;;;;;;;3.92;2.70;;;19.20;79.60;;;;;;4930690;28;20042;-80
2021/04/21 12:21:24;;;;;;;3.33;2.97;;;19.20;79.80;;;;;;4913310;29;20046;-80
2021/04/21 12:23:53;;;;;;;4.18;2.80;;;19.00;80.10;;;;;;4928743;29;20043;-80
2021/04/21 12:26:23;;;;;;;4.68;2.63;;;18.70;80.80;;;;;;4945601;28;20064;-79
2021/04/21 12:28:54;;;;;;;3.40;2.50;;;18.50;81.70;;;;;;4908389;29;20063;-80
2021/04/21 12:31:23;;;;;;;2.92;2.33;;;18.40;81.90;;;;;;4926464;28;20053;-80
2021/04/21 12:33:51;;;;;;;3.13;2.40;;;18.30;82.90;;;;;;4945755;28;20069;-80
2021/04/21 12:36:23;;;;;;;3.75;2.53;;;18.30;83.20;;;;;;4936948;29;20039;-80
2021/04/21 12:39:03;;;;;;;3.00;2.65;;;18.30;83.10;;;;;;4913163;28;20457;-80
2021/04/21 12:41:31;;;;;;;3.58;2.38;;;18.10;83.50;;;;;;4932720;28;20313;-80
2021/04/21 12:44:14;;;;;;;4.22;2.40;;;18.00;83.60;;;;;;4927455;29;20054;-79
2021/04/21 12:46:43;;;;;;;2.50;2.28;;;17.60;85.80;;;;;;4927358;28;20086;-79
2021/04/21 12:49:33;;;;;;;3.53;2.22;;;17.50;86.50;;;;;;4928843;28;20049;-79
2021/04/21 12:52:01;;;;;;;3.10;2.40;;;17.40;86.80;;;;;;4943293;28;20477;-79
2021/04/21 12:54:34;;;;;;;2.67;2.25;;;17.40;87.20;;;;;;4929538;28;20062;-80
2021/04/21 12:57:03;;;;;;;2.50;2.10;;;17.30;86.60;;;;;;4946010;28;20129;-79
2021/04/21 12:59:40;;;;;;;4.57;2.15;;;17.30;87.60;;;;;;4927837;28;20058;-79
2021/04/21 13:02:08;;;;;;;;;;;17.40;87.40;;;;;;4923228;28;20043;-79
2021/04/21 13:04:40;;;;;;;2.83;2.10;;;17.40;87.30;;;;;;4944003;28;20440;-79
2021/04/21 13:07:13;;;;;;;2.72;1.92;;;17.40;87.10;;;;;;4918737;29;20155;-79
2021/04/21 13:09:41;;;;;;;3.83;2.20;;;17.50;87.40;;;;;;4920546;28;20516;-79
2021/04/21 13:12:14;;;;;;;3.78;1.90;;;17.60;84.20;;;;;;4943045;29;20382;-79
2021/04/21 13:14:46;;;;;;;2.97;2.20;;;17.60;82.20;;;;;;4926447;28;20031;-79
2021/04/21 13:17:14;;;;;;;2.80;1.92;;;17.60;83.30;;;;;;4925455;28;20067;-79
2021/04/21 13:19:50;;;;;;;4.75;1.98;;;17.80;84.00;;;;;;4925037;29;20079;-79
2021/04/21 13:22:29;;;;;;;3.95;1.80;;;17.60;83.00;;;;;;4943398;28;20070;-79
2021/04/21 13:24:57;;;;;;;2.65;1.85;;;17.60;83.80;;;;;;4942736;28;20475;-79
2021/04/21 13:27:26;;;;;;;3.42;1.80;;;17.60;83.10;;;;;;4931432;28;20652;-79
2021/04/21 13:29:57;;;;;;;4.05;1.73;;;17.50;83.70;;;;;;4919712;29;20412;-80
2021/04/21 13:32:25;;;;;;;1.98;1.55;;;17.50;85.00;;;;;;4943618;28;20044;-79
2021/04/21 13:34:54;;;;;;;3.80;1.58;;;17.30;82.40;;;;;;4943018;28;20465;-79